Time;durP1;ratioP1;P1;durP2;ratioP2;P2;SDS_P1;SDS_P2;PMS_P1;PMS_P2;Temp;Humidity;BMP_temperature;BMP_pressure;BME280_temperature;BME280_humidity;BME280_pressure;Samples;Min_cycle;Max_cycle;Signal;HPM_P1;HPM_P2
2022/03/23 00:01:45;;;;;;;54.30;27.20;;;;;;;0.56;57.65;102658.78;1758290;81;21346;-75
2022/03/23 00:04:12;;;;;;;58.15;28.67;;;;;;;0.53;57.54;102650.98;1758220;81;21342;-74
2022/03/23 00:06:39;;;;;;;58.30;29.07;;;;;;;0.52;57.61;102647.53;1758456;81;20912;-74
2022/03/23 00:09:07;;;;;;;61.00;28.98;;;;;;;0.53;57.51;102645.81;1758384;81;20837;-74
2022/03/23 00:11:36;;;;;;;54.13;28.50;;;;;;;0.49;57.40;102647.90;1758245;81;20892;-73
2022/03/23 00:14:06;;;;;;;61.40;33.10;;;;;;;0.43;57.64;102643.53;1758449;81;21384;-73
2022/03/23 00:16:38;;;;;;;65.72;33.28;;;;;;;0.46;58.04;102645.28;1758246;81;20889;-74
2022/03/23 00:19:06;;;;;;;69.60;37.13;;;;;;;0.52;58.20;102647.97;1758402;80;20935;-73
2022/03/23 00:21:34;;;;;;;69.10;34.55;;;;;;;0.57;58.01;102648.89;1758570;81;21338;-74
2022/03/23 00:24:01;;;;;;;69.12;34.75;;;;;;;0.58;57.98;102642.47;1758225;81;21222;-74
2022/03/23 00:26:29;;;;;;;57.75;31.40;;;;;;;0.61;57.76;102644.22;1758267;81;20900;-74
2022/03/23 00:28:58;;;;;;;59.65;31.07;;;;;;;0.59;57.70;102642.89;1758306;81;20983;-74
2022/03/23 00:31:25;;;;;;;60.78;32.55;;;;;;;0.55;57.64;102643.69;1758165;81;20944;-74
2022/03/23 00:33:54;;;;;;;63.25;33.53;;;;;;;0.49;57.86;102642.34;1758377;81;20892;-73
2022/03/23 00:36:21;;;;;;;65.90;32.53;;;;;;;0.45;58.35;102642.28;1758503;81;21174;-74
2022/03/23 00:38:48;;;;;;;63.38;30.95;;;;;;;0.42;58.65;102639.20;1758255;80;20940;-73
2022/03/23 00:41:15;;;;;;;57.70;28.90;;;;;;;0.37;58.75;102642.14;1750427;80;20928;-74
2022/03/23 00:43:44;;;;;;;53.55;26.57;;;;;;;0.28;58.97;102636.42;1745161;82;20900;-73
2022/03/23 00:46:10;;;;;;;52.48;26.15;;;;;;;0.22;59.09;102629.87;1745162;82;20917;-73
2022/03/23 00:48:37;;;;;;;52.58;25.77;;;;;;;0.17;59.25;102623.34;1745152;82;21804;-74
2022/03/23 00:51:05;;;;;;;51.15;25.65;;;;;;;0.13;59.30;102625.43;1745062;82;21386;-74
2022/03/23 00:53:32;;;;;;;64.03;25.68;;;;;;;0.10;59.24;102620.67;1744669;80;20921;-74
2022/03/23 00:55:59;;;;;;;56.65;27.27;;;;;;;0.07;58.85;102620.59;1744687;82;20921;-75
2022/03/23 00:58:25;;;;;;;60.08;27.15;;;;;;;0.06;58.59;102613.72;1746294;80;20884;-73
2022/03/23 01:00:53;;;;;;;46.80;24.15;;;;;;;0.04;58.75;102616.27;1744622;82;21545;-73
2022/03/23 01:03:21;;;;;;;50.28;25.43;;;;;;;0.07;58.76;102609.88;1744777;81;20858;-73
2022/03/23 01:05:51;;;;;;;52.48;24.92;;;;;;;0.11;58.71;102610.38;1744704;80;20976;-73
2022/03/23 01:08:19;;;;;;;48.75;25.60;;;;;;;0.14;58.59;102610.41;1744698;81;20948;-72
2022/03/23 01:10:48;;;;;;;53.17;25.85;;;;;;;0.17;58.44;102609.16;1744704;81;20988;-73
2022/03/23 01:13:16;;;;;;;61.40;29.98;;;;;;;0.14;58.73;102610.84;1744672;82;21246;-73
2022/03/23 01:15:43;;;;;;;56.58;27.98;;;;;;;0.15;59.16;102608.70;1744531;82;20877;-73
2022/03/23 01:18:12;;;;;;;64.22;29.05;;;;;;;0.18;58.98;102610.91;1744532;82;20842;-75
2022/03/23 01:20:39;;;;;;;57.55;27.10;;;;;;;0.18;58.86;102611.34;1744601;81;20972;-75
2022/03/23 01:23:07;;;;;;;59.80;26.57;;;;;;;0.10;58.54;102603.90;1744634;81;21003;-74
2022/03/23 01:25:35;;;;;;;66.05;26.80;;;;;;;-0.01;58.72;102600.72;1744669;82;21125;-75
2022/03/23 01:28:02;;;;;;;63.10;28.07;;;;;;;-0.11;58.98;102604.02;1744957;81;20889;-75
2022/03/23 01:30:31;;;;;;;52.17;23.98;;;;;;;-0.18;59.15;102596.99;1744574;81;20915;-75
2022/03/23 01:32:59;;;;;;;51.98;23.20;;;;;;;-0.19;59.33;102606.88;1744644;82;20925;-73
2022/03/23 01:35:28;;;;;;;58.08;24.98;;;;;;;-0.20;59.41;102600.00;1744870;81;21520;-75
2022/03/23 01:37:55;;;;;;;55.43;24.67;;;;;;;-0.22;59.52;102603.83;1744645;81;21682;-75
2022/03/23 01:40:22;;;;;;;44.45;22.10;;;;;;;-0.19;59.59;102603.44;1744490;82;20920;-73
2022/03/23 01:42:49;;;;;;;52.83;23.22;;;;;;;-0.20;59.59;102601.29;1744642;82;21481;-73
2022/03/23 01:45:16;;;;;;;56.40;23.30;;;;;;;-0.21;59.36;102606.84;1744512;81;20845;-73
2022/03/23 01:47:43;;;;;;;53.38;23.47;;;;;;;-0.24;59.34;102609.37;1744971;82;20865;-74
2022/03/23 01:50:10;;;;;;;50.10;22.48;;;;;;;-0.29;59.47;102600.71;1744572;82;21378;-73
2022/03/23 01:52:38;;;;;;;37.25;20.43;;;;;;;-0.30;59.49;102603.25;1744520;81;20901;-75
2022/03/23 01:55:13;;;;;;;41.53;20.15;;;;;;;-0.33;59.31;102601.49;1744739;82;21386;-75
2022/03/23 01:57:43;;;;;;;43.98;20.72;;;;;;;-0.36;59.10;102600.13;1745111;82;20937;-75
2022/03/23 02:00:11;;;;;;;41.98;19.02;;;;;;;-0.39;59.15;102601.38;1744900;81;20975;-76
2022/03/23 02:02:43;;;;;;;47.50;22.00;;;;;;;-0.36;58.86;102600.56;1744786;82;21758;-76
2022/03/23 02:05:13;;;;;;;44.18;21.95;;;;;;;-0.32;59.36;102599.34;1734070;82;20988;-74
2022/03/23 02:07:41;;;;;;;45.48;21.77;;;;;;;-0.26;59.25;102597.31;1744239;81;21414;-75
2022/03/23 02:10:09;;;;;;;47.05;22.35;;;;;;;-0.27;59.38;102600.31;1744597;82;21386;-76
2022/03/23 02:12:45;;;;;;;47.05;21.57;;;;;;;-0.24;59.39;102600.36;1744212;81;20909;-74
2022/03/23 02:15:16;;;;;;;50.55;22.73;;;;;;;-0.18;59.39;102596.99;1745413;81;20871;-74
2022/03/23 02:17:45;;;;;;;42.53;23.40;;;;;;;-0.15;59.30;102605.23;1744869;81;20869;-76
2022/03/23 02:20:13;;;;;;;46.83;22.95;;;;;;;-0.14;59.23;102604.38;1744658;81;21378;-75
2022/03/23 02:22:41;;;;;;;58.75;24.63;;;;;;;-0.16;59.17;102599.61;1734143;82;20987;-74
2022/03/23 02:25:09;;;;;;;61.50;24.45;;;;;;;-0.17;59.42;102597.89;1744647;81;20948;-74
2022/03/23 02:27:38;;;;;;;62.85;26.68;;;;;;;-0.17;59.50;102600.04;1744640;82;21035;-75
2022/03/23 02:30:07;;;;;;;55.08;24.87;;;;;;;-0.19;59.43;102602.14;1744621;81;20866;-76
2022/03/23 02:32:34;;;;;;;55.40;25.37;;;;;;;-0.25;59.44;102597.31;1744813;81;21348;-75
2022/03/23 02:35:03;;;;;;;50.78;24.52;;;;;;;-0.31;59.79;102593.77;1744434;81;20873;-75
2022/03/23 02:37:30;;;;;;;45.20;23.77;;;;;;;-0.36;60.10;102599.27;1744538;82;20936;-76
2022/03/23 02:39:58;;;;;;;45.30;24.15;;;;;;;-0.39;60.49;102596.23;1744616;80;21172;-74
2022/03/23 02:42:25;;;;;;;49.05;24.60;;;;;;;-0.44;60.61;102591.42;1744494;81;20837;-74
2022/03/23 02:44:52;;;;;;;53.45;27.37;;;;;;;-0.48;60.54;102590.48;1745782;82;20924;-73
2022/03/23 02:47:19;;;;;;;48.42;24.10;;;;;;;-0.54;60.68;102589.09;1746651;81;21462;-72
2022/03/23 02:49:47;;;;;;;47.05;25.35;;;;;;;-0.53;60.86;102586.97;1745347;82;21324;-75
2022/03/23 02:52:14;;;;;;;48.13;24.90;;;;;;;-0.54;60.84;102584.36;1744654;82;21311;-75
2022/03/23 03:03:34;;;;;;;45.38;23.83;;;;;;;-0.54;60.83;102589.09;1745036;81;20881;-74
2022/03/23 03:06:04;;;;;;;50.50;25.08;;;;;;;-0.50;60.80;102584.86;1744899;81;21119;-75
2022/03/23 03:08:45;;;;;;;49.77;26.70;;;;;;;-0.49;60.66;102581.04;1744544;81;20885;-74
2022/03/23 03:11:12;;;;;;;52.38;26.37;;;;;;;-0.49;60.65;102575.88;1744523;82;20945;-74
2022/03/23 03:13:42;;;;;;;56.65;28.95;;;;;;;-0.53;60.41;102570.22;1744594;81;21442;-73
2022/03/23 03:16:10;;;;;;;64.32;33.92;;;;;;;-0.58;60.34;102567.11;1744522;82;20885;-73
2022/03/23 03:18:39;;;;;;;61.53;30.25;;;;;;;-0.66;60.37;102560.55;1744568;82;20901;-73
2022/03/23 03:21:07;;;;;;;48.68;24.65;;;;;;;-0.75;60.75;102557.38;1744861;82;20928;-74
2022/03/23 03:23:44;;;;;;;46.60;22.93;;;;;;;-0.71;60.69;102557.89;1744631;81;20893;-74
2022/03/23 03:26:11;;;;;;;45.08;23.18;;;;;;;-0.72;60.74;102569.02;1744656;82;20920;-73
2022/03/23 03:28:40;;;;;;;43.52;22.87;;;;;;;-0.73;60.90;102571.16;1744517;82;21008;-75
2022/03/23 03:31:09;;;;;;;54.38;24.60;;;;;;;-0.72;60.95;102560.42;1744810;81;21222;-74
2022/03/23 03:33:37;;;;;;;55.50;27.48;;;;;;;-0.70;60.89;102569.91;1745542;81;20941;-73
2022/03/23 03:36:05;;;;;;;53.70;28.95;;;;;;;-0.71;60.75;102568.59;1745708;81;20869;-74
2022/03/23 03:38:32;;;;;;;54.83;27.62;;;;;;;-0.71;60.81;102571.16;1744903;82;21391;-73
2022/03/23 03:41:01;;;;;;;48.63;26.15;;;;;;;-0.70;60.81;102572.91;1744869;82;20889;-73
2022/03/23 03:43:30;;;;;;;54.33;26.52;;;;;;;-0.68;60.84;102564.80;1757452;81;21282;-72
2022/03/23 03:45:58;;;;;;;45.75;25.35;;;;;;;-0.64;60.71;102571.75;1758641;81;21019;-73
2022/03/23 03:48:25;;;;;;;42.67;23.60;;;;;;;-0.63;60.86;102570.89;1760961;80;20822;-73
2022/03/23 03:50:54;;;;;;;49.55;24.82;;;;;;;-0.61;60.68;102565.34;1759347;81;20853;-71
2022/03/23 03:53:20;;;;;;;44.88;23.60;;;;;;;-0.60;60.58;102564.52;1759245;81;20928;-74
2022/03/23 03:55:48;;;;;;;50.98;24.47;;;;;;;-0.59;60.61;102562.37;1758211;80;21135;-73
2022/03/23 03:58:17;;;;;;;41.95;21.95;;;;;;;-0.60;60.48;102563.23;1757831;81;20888;-74
2022/03/23 04:00:47;;;;;;;45.90;24.05;;;;;;;-0.63;60.46;102560.58;1757978;81;20952;-74
2022/03/23 04:03:14;;;;;;;49.08;25.08;;;;;;;-0.61;60.50;102556.76;1757996;81;20892;-74
2022/03/23 04:05:44;;;;;;;47.05;23.50;;;;;;;-0.58;60.46;102557.66;1757860;80;20920;-74
2022/03/23 04:08:11;;;;;;;43.98;24.82;;;;;;;-0.57;60.64;102558.13;1758060;81;21156;-75
2022/03/23 04:10:40;;;;;;;45.30;24.63;;;;;;;-0.52;60.75;102557.77;1757864;81;20971;-75
2022/03/23 04:13:07;;;;;;;44.77;23.30;;;;;;;-0.47;60.61;102553.98;1757935;81;20971;-74
2022/03/23 04:15:36;;;;;;;41.53;24.72;;;;;;;-0.44;60.54;102554.05;1757821;81;21022;-74
2022/03/23 04:18:05;;;;;;;46.88;24.98;;;;;;;-0.41;60.54;102554.09;1757811;81;20904;-74
2022/03/23 04:20:35;;;;;;;46.33;24.07;;;;;;;-0.39;60.49;102551.55;1758041;81;20856;-74
2022/03/23 04:23:02;;;;;;;49.88;26.80;;;;;;;-0.36;60.59;102551.16;1757995;81;20924;-75
2022/03/23 04:25:29;;;;;;;49.85;27.13;;;;;;;-0.31;60.58;102553.81;1757867;81;20944;-74
2022/03/23 04:27:58;;;;;;;47.38;26.52;;;;;;;-0.26;60.46;102554.34;1757881;81;21431;-76
2022/03/23 04:30:30;;;;;;;44.18;24.57;;;;;;;-0.19;60.74;102554.45;1758318;81;20935;-74
2022/03/23 04:32:58;;;;;;;51.10;25.95;;;;;;;-0.10;60.46;102558.45;1758078;81;22039;-73
2022/03/23 04:35:25;;;;;;;44.67;26.80;;;;;;;0.01;60.42;102552.17;1757921;81;20932;-75
2022/03/23 04:37:52;;;;;;;44.25;26.85;;;;;;;0.16;60.20;102553.27;1758584;81;20916;-74
2022/03/23 04:40:19;;;;;;;50.17;25.85;;;;;;;0.34;60.08;102544.05;1757977;81;20936;-76
2022/03/23 04:42:48;;;;;;;42.40;25.65;;;;;;;0.61;59.66;102550.84;1751115;81;21452;-77
2022/03/23 04:45:18;;;;;;;53.90;26.50;;;;;;;0.93;59.34;102547.77;1744581;82;21248;-75
2022/03/23 04:47:45;;;;;;;59.42;31.27;;;;;;;1.29;58.84;102541.67;1744598;82;20873;-75
2022/03/23 04:50:13;;;;;;;59.70;30.17;;;;;;;1.66;57.86;102537.70;1744672;82;21433;-76
2022/03/23 04:52:43;;;;;;;66.07;32.25;;;;;;;1.98;57.06;102548.70;1744662;82;20932;-78
2022/03/23 04:55:13;;;;;;;54.18;31.52;;;;;;;2.25;56.51;102551.48;1745428;81;20958;-76
2022/03/23 04:57:40;;;;;;;58.73;32.90;;;;;;;2.55;55.84;102552.92;1744680;81;21884;-75
2022/03/23 05:00:13;;;;;;;61.40;35.63;;;;;;;2.80;55.23;102556.06;1744815;80;20972;-76
2022/03/23 05:02:42;;;;;;;55.67;35.83;;;;;;;3.20;54.84;102553.58;1744684;82;20893;-75
2022/03/23 05:05:14;;;;;;;58.35;35.35;;;;;;;3.80;53.74;102556.61;1744635;82;20874;-75
2022/03/23 05:07:43;;;;;;;54.45;33.15;;;;;;;4.40;52.16;102559.11;1744651;81;21346;-75
2022/03/23 05:10:13;;;;;;;61.98;33.78;;;;;;;5.02;50.48;102553.22;1744568;82;21274;-74
2022/03/23 05:12:44;;;;;;;51.90;33.10;;;;;;;5.54;48.80;102555.04;1744583;82;20916;-76
2022/03/23 05:15:13;;;;;;;52.73;30.52;;;;;;;6.05;47.31;102551.14;1744814;82;20972;-74
2022/03/23 05:17:42;;;;;;;46.08;30.35;;;;;;;6.44;46.18;102552.02;1744603;81;20932;-74
2022/03/23 05:20:12;;;;;;;52.08;32.05;;;;;;;6.84;45.24;102553.27;1744713;82;21374;-75
2022/03/23 05:22:40;;;;;;;51.53;31.68;;;;;;;7.20;44.49;102554.94;1744593;81;20924;-73
2022/03/23 05:25:09;;;;;;;52.23;34.10;;;;;;;7.62;44.79;102555.16;1744537;82;21513;-74
2022/03/23 05:27:40;;;;;;;51.30;33.20;;;;;;;8.09;44.21;102550.85;1744700;82;21535;-73
2022/03/23 05:30:10;;;;;;;60.73;34.45;;;;;;;8.52;43.53;102551.38;1744884;81;21406;-74
2022/03/23 05:32:39;;;;;;;56.42;33.35;;;;;;;8.84;42.04;102553.77;1744733;82;20972;-75
2022/03/23 05:35:08;;;;;;;50.15;30.45;;;;;;;9.10;41.99;102552.73;1744569;81;21147;-73
2022/03/23 05:37:36;;;;;;;49.08;33.15;;;;;;;9.40;41.49;102548.98;1744597;82;20904;-75
2022/03/23 05:40:05;;;;;;;52.88;33.50;;;;;;;9.68;40.96;102537.84;1744649;82;20897;-74
2022/03/23 05:42:32;;;;;;;45.30;28.90;;;;;;;10.03;40.32;102534.76;1747923;81;21030;-73
2022/03/23 05:45:00;;;;;;;44.35;28.35;;;;;;;10.42;39.13;102538.51;1757871;81;20944;-75
2022/03/23 05:47:27;;;;;;;41.53;27.40;;;;;;;10.79;38.83;102537.84;1757880;80;21143;-74
2022/03/23 05:49:55;;;;;;;44.80;29.63;;;;;;;11.13;38.45;102541.19;1757917;81;20924;-75
2022/03/23 05:52:21;;;;;;;46.37;31.40;;;;;;;11.43;38.02;102539.36;1758226;81;20979;-74
2022/03/23 05:54:50;;;;;;;49.90;28.85;;;;;;;11.91;37.34;102546.52;1757910;80;20925;-74
2022/03/23 05:57:19;;;;;;;47.20;29.72;;;;;;;12.46;37.09;102537.58;1757952;81;20943;-72
2022/03/23 05:59:47;;;;;;;47.58;30.05;;;;;;;13.14;35.45;102535.38;1759128;81;21250;-73
2022/03/23 06:02:15;;;;;;;45.73;29.25;;;;;;;13.14;35.45;102535.38;1757876;81;20931;-73
2022/03/23 06:04:44;;;;;;;51.90;31.93;;;;;;;13.48;35.04;102530.08;1758045;81;20948;-73
2022/03/23 06:07:12;;;;;;;48.68;31.17;;;;;;;13.78;34.73;102537.14;1757913;81;21390;-73
2022/03/23 06:09:39;;;;;;;45.80;30.52;;;;;;;14.21;34.19;102534.44;1757932;81;20856;-72
2022/03/23 06:12:11;;;;;;;47.23;30.40;;;;;;;14.68;33.38;102535.41;1758319;81;21132;-74
2022/03/23 06:14:42;;;;;;;55.30;29.65;;;;;;;15.00;32.64;102527.26;1758658;80;20998;-72
2022/03/23 06:17:11;;;;;;;44.67;29.07;;;;;;;15.27;32.16;102538.30;1757905;80;20911;-73
2022/03/23 06:19:37;;;;;;;39.42;27.98;;;;;;;15.60;31.73;102530.91;1757691;81;20939;-74
2022/03/23 06:22:06;;;;;;;37.25;26.57;;;;;;;15.86;30.72;102532.27;1757986;80;20912;-74
2022/03/23 06:24:33;;;;;;;34.60;27.62;;;;;;;16.16;29.87;102531.14;1758138;81;21509;-74
2022/03/23 06:27:02;;;;;;;39.55;28.47;;;;;;;16.58;29.14;102530.22;1757837;81;20932;-74
2022/03/23 06:29:29;;;;;;;36.05;25.85;;;;;;;17.12;28.52;102532.09;1757944;81;20932;-75
2022/03/23 06:31:57;;;;;;;38.78;27.82;;;;;;;17.64;27.48;102530.84;1757936;81;20991;-74
2022/03/23 06:34:24;;;;;;;36.80;28.30;;;;;;;18.08;26.50;102531.81;1757862;81;20868;-75
2022/03/23 06:36:51;;;;;;;35.20;27.00;;;;;;;18.10;26.35;102527.27;1758221;80;21207;-74
2022/03/23 06:39:18;;;;;;;37.30;28.38;;;;;;;18.10;26.29;102529.44;1757893;81;21027;-74
2022/03/23 06:41:45;;;;;;;37.30;29.12;;;;;;;18.13;25.96;102529.23;1757911;81;20880;-75
2022/03/23 06:44:13;;;;;;;38.20;27.32;;;;;;;18.19;25.36;102520.05;1746871;81;20885;-74
2022/03/23 06:46:40;;;;;;;36.50;25.57;;;;;;;18.16;25.02;102520.22;1744712;82;20944;-76
2022/03/23 06:49:08;;;;;;;35.52;26.95;;;;;;;18.12;24.58;102517.38;1744529;81;21145;-74
2022/03/23 06:51:35;;;;;;;69.00;57.35;;;;;;;18.09;24.65;102514.44;1744804;82;21398;-75
2022/03/23 06:54:02;;;;;;;40.80;30.48;;;;;;;18.05;24.63;102510.26;1744486;81;20929;-77
2022/03/23 06:56:29;;;;;;;36.38;26.42;;;;;;;17.94;25.04;102506.09;1744479;82;20948;-75
2022/03/23 06:58:56;;;;;;;43.65;34.50;;;;;;;17.88;25.21;102506.48;1744500;82;20913;-75
2022/03/23 07:01:25;;;;;;;41.92;30.55;;;;;;;17.97;25.25;102505.91;1744558;82;21071;-76
2022/03/23 07:03:53;;;;;;;31.12;25.30;;;;;;;18.00;25.28;102503.91;1744545;81;20889;-76
2022/03/23 07:06:20;;;;;;;37.10;25.15;;;;;;;18.11;25.25;102499.75;1745023;81;20936;-75
2022/03/23 07:11:36;;;;;;;40.58;26.82;;;;;;;18.50;25.06;102493.75;1744616;81;20896;-75
2022/03/23 07:14:05;;;;;;;35.50;25.08;;;;;;;18.62;24.84;102487.63;1744592;81;21446;-76
2022/03/23 07:16:33;;;;;;;32.45;25.43;;;;;;;18.67;25.05;102483.83;1744524;82;20893;-76
2022/03/23 07:19:01;;;;;;;35.23;25.43;;;;;;;18.82;25.10;102482.87;1744486;82;20968;-76
2022/03/23 07:21:28;;;;;;;34.10;24.02;;;;;;;19.08;24.60;102483.83;1744381;82;20952;-76
2022/03/23 07:23:57;;;;;;;30.15;22.77;;;;;;;19.41;24.56;102487.84;1744638;81;20905;-78
2022/03/23 07:26:24;;;;;;;29.00;23.10;;;;;;;19.80;24.07;102488.75;1744891;81;21423;-76
2022/03/23 07:28:51;;;;;;;29.18;21.55;;;;;;;20.09;24.36;102485.38;1744495;82;20914;-75
2022/03/23 07:31:18;;;;;;;27.90;19.95;;;;;;;20.40;23.65;102484.03;1744452;82;20932;-76
2022/03/23 07:33:46;;;;;;;24.30;20.68;;;;;;;20.74;22.71;102486.09;1744406;82;20936;-75
2022/03/23 07:36:13;;;;;;;22.35;18.45;;;;;;;20.88;22.15;102474.78;1744955;82;20912;-75
2022/03/23 07:38:40;;;;;;;25.75;18.25;;;;;;;21.16;22.09;102479.38;1745233;82;21455;-76
2022/03/23 07:41:08;;;;;;;20.90;16.37;;;;;;;21.46;20.91;102469.56;1744620;81;20969;-75
2022/03/23 07:43:35;;;;;;;19.90;14.05;;;;;;;21.70;20.46;102473.98;1749976;81;20964;-75
2022/03/23 07:46:02;;;;;;;19.40;14.20;;;;;;;21.86;19.69;102468.29;1757855;81;20885;-75
2022/03/23 07:48:32;;;;;;;20.25;14.18;;;;;;;21.98;19.45;102471.31;1758048;81;20892;-75
2022/03/23 07:50:59;;;;;;;20.68;12.90;;;;;;;22.02;18.19;102467.92;1757919;80;21772;-76
2022/03/23 07:53:27;;;;;;;20.20;12.98;;;;;;;21.93;17.78;102459.66;1757874;80;20963;-75
2022/03/23 07:55:54;;;;;;;19.25;11.73;;;;;;;21.89;17.21;102458.69;1758489;81;21362;-74
2022/03/23 07:58:22;;;;;;;22.02;11.80;;;;;;;21.80;17.16;102462.09;1758653;81;20936;-75
2022/03/23 08:00:49;;;;;;;20.77;10.70;;;;;;;21.79;17.94;102459.03;1761188;80;20959;-74
2022/03/23 08:03:17;;;;;;;20.10;11.93;;;;;;;21.97;17.77;102457.60;1759819;81;21578;-77
2022/03/23 08:05:44;;;;;;;23.00;11.97;;;;;;;22.20;18.22;102459.77;1758513;80;20860;-76
2022/03/23 08:08:13;;;;;;;17.42;11.55;;;;;;;22.45;17.39;102460.48;1758075;81;20944;-75
2022/03/23 08:10:42;;;;;;;19.95;11.53;;;;;;;22.74;17.47;102458.09;1758056;81;21501;-76
2022/03/23 08:13:12;;;;;;;19.75;11.53;;;;;;;23.09;16.54;102459.20;1758048;81;20940;-77
2022/03/23 08:15:40;;;;;;;14.78;9.85;;;;;;;23.24;16.17;102458.41;1758035;81;21544;-76
2022/03/23 08:18:09;;;;;;;14.50;8.80;;;;;;;23.30;16.63;102451.66;1756968;81;21026;-76
2022/03/23 08:20:37;;;;;;;15.68;8.18;;;;;;;23.42;15.81;102450.63;1757916;81;21500;-75
2022/03/23 08:23:08;;;;;;;12.33;7.67;;;;;;;23.40;15.16;102443.22;1757913;81;20900;-75
2022/03/23 08:25:41;;;;;;;13.58;8.30;;;;;;;23.34;14.75;102439.72;1758284;80;20935;-76
2022/03/23 08:28:09;;;;;;;;;;;;;;;23.27;15.15;102431.86;1760531;81;21923;-76
2022/03/23 08:30:38;;;;;;;11.53;8.20;;;;;;;23.35;15.07;102432.91;1758128;81;20515;-77
2022/03/23 08:33:05;;;;;;;14.45;9.38;;;;;;;23.41;15.45;102424.84;1758252;80;21070;-76
2022/03/23 08:35:34;;;;;;;18.12;10.15;;;;;;;23.38;15.74;102422.41;1757889;80;20865;-76
2022/03/23 08:38:01;;;;;;;14.28;9.78;;;;;;;23.45;15.47;102422.23;1758042;81;20932;-75
2022/03/23 08:40:29;;;;;;;15.68;10.00;;;;;;;23.59;16.03;102415.20;1758009;81;21916;-74
2022/03/23 08:42:58;;;;;;;19.70;10.75;;;;;;;23.69;16.13;102414.41;1757773;80;20877;-75
2022/03/23 08:45:25;;;;;;;17.65;10.72;;;;;;;23.80;15.39;102415.67;1758104;81;20884;-75
2022/03/23 08:47:54;;;;;;;12.30;9.53;;;;;;;23.77;14.90;102405.24;1757903;81;20947;-77
2022/03/23 08:50:21;;;;;;;11.95;10.20;;;;;;;23.59;14.55;102396.95;1721897;83;21377;-76
2022/03/23 08:52:49;;;;;;;15.90;9.10;;;;;;;23.33;15.82;102404.56;1703734;84;21587;-75
2022/03/23 08:55:23;;;;;;;17.60;9.83;;;;;;;23.29;15.73;102397.77;1703740;84;20933;-76
2022/03/23 08:57:49;;;;;;;14.78;9.45;;;;;;;23.30;15.18;102389.62;1703800;84;20967;-76
2022/03/23 09:00:17;;;;;;;12.68;9.00;;;;;;;23.43;15.70;102385.37;1703792;84;20882;-76
2022/03/23 09:02:44;;;;;;;12.68;8.88;;;;;;;23.49;14.83;102383.50;1703694;84;20882;-75
2022/03/23 09:05:14;;;;;;;10.88;7.47;;;;;;;23.45;15.21;102377.20;1704508;84;21209;-74
2022/03/23 09:07:41;;;;;;;8.38;5.47;;;;;;;23.43;15.11;102373.31;1703730;84;20977;-75
2022/03/23 09:10:13;;;;;;;7.47;6.00;;;;;;;23.38;15.07;102371.04;1703733;84;21525;-75
2022/03/23 09:12:41;;;;;;;22.20;6.17;;;;;;;23.49;15.20;102366.59;1704783;84;21021;-74
2022/03/23 09:15:10;;;;;;;9.50;5.90;;;;;;;23.61;15.01;102372.23;1703866;84;21031;-74
2022/03/23 09:17:40;;;;;;;11.80;6.65;;;;;;;23.79;14.79;102374.64;1703715;84;21658;-75
2022/03/23 09:20:07;;;;;;;13.40;7.00;;;;;;;23.89;14.77;102365.28;1704039;84;20897;-76
2022/03/23 09:22:36;;;;;;;12.10;7.35;;;;;;;23.98;15.34;102359.59;1703779;84;21495;-75
2022/03/23 09:25:05;;;;;;;9.43;6.30;;;;;;;24.06;14.86;102353.56;1703915;84;21447;-75
2022/03/23 09:27:34;;;;;;;12.58;7.12;;;;;;;24.17;14.14;102340.88;1703801;84;20898;-77
2022/03/23 09:30:03;;;;;;;13.35;8.45;;;;;;;24.12;13.83;102343.14;1703782;84;21126;-75
2022/03/23 09:32:31;;;;;;;10.10;7.28;;;;;;;24.05;14.44;102343.81;1703888;84;20941;-76
2022/03/23 09:34:58;;;;;;;12.20;8.38;;;;;;;24.12;14.99;102332.41;1703776;84;21000;-75
2022/03/23 09:40:12;;;;;;;9.80;7.45;;;;;;;24.58;14.25;102326.02;1703780;84;20909;-75
2022/03/23 09:42:41;;;;;;;9.78;7.30;;;;;;;24.94;13.55;102328.42;1703667;84;21162;-75
2022/03/23 09:45:08;;;;;;;10.28;6.58;;;;;;;25.15;12.88;102326.91;1679744;84;20893;-76
2022/03/23 09:47:37;;;;;;;8.85;6.62;;;;;;;25.09;13.03;102323.45;1705256;83;20948;-74
2022/03/23 09:50:06;;;;;;;7.72;6.60;;;;;;;25.03;13.11;102324.90;1715890;83;21493;-75
2022/03/23 09:52:33;;;;;;;10.25;7.12;;;;;;;24.85;13.32;102322.59;1716148;83;20952;-74
2022/03/23 09:55:00;;;;;;;11.45;6.33;;;;;;;24.80;13.35;102309.60;1716033;83;21137;-75
2022/03/23 09:57:27;;;;;;;9.33;6.70;;;;;;;24.83;13.37;102307.13;1715834;83;21414;-75
2022/03/23 09:59:54;;;;;;;9.48;6.83;;;;;;;25.05;13.95;102298.39;1716208;83;20924;-75
2022/03/23 10:02:41;;;;;;;13.78;6.83;;;;;;;24.98;12.28;102299.47;1715814;83;20992;-74
2022/03/23 10:05:45;;;;;;;13.48;6.95;;;;;;;24.42;12.65;102293.04;1678227;83;20892;-75
2022/03/23 10:09:08;;;;;;;9.00;6.42;;;;;;;24.22;13.21;102289.52;1698731;83;21242;-75
2022/03/23 10:12:10;;;;;;;10.30;7.00;;;;;;;24.21;13.36;102294.50;1715887;83;20865;-75
2022/03/23 10:15:34;;;;;;;10.95;6.67;;;;;;;24.17;13.68;102275.70;1716062;83;21043;-74
2022/03/23 10:18:47;;;;;;;8.00;6.87;;;;;;;24.14;13.30;102270.09;1715992;83;20987;-74
2022/03/23 10:21:15;;;;;;;10.00;6.60;;;;;;;24.05;13.06;102265.58;1716175;83;21011;-75
2022/03/23 10:24:00;;;;;;;8.78;6.35;;;;;;;23.99;13.41;102258.97;1715913;83;21144;-77
2022/03/23 10:26:28;;;;;;;12.65;6.83;;;;;;;24.12;13.05;102255.14;1700516;83;20980;-75
2022/03/23 10:28:58;;;;;;;11.65;6.92;;;;;;;24.29;13.49;102254.94;1715960;83;20901;-74
2022/03/23 10:31:26;;;;;;;9.03;6.70;;;;;;;24.46;13.00;102246.17;1716087;83;20917;-76
2022/03/23 10:34:08;;;;;;;9.63;7.08;;;;;;;24.51;12.46;102243.09;1716428;83;20912;-76
2022/03/23 10:36:46;;;;;;;11.80;7.37;;;;;;;24.48;12.83;102235.31;1715974;83;20888;-75
2022/03/23 10:39:13;;;;;;;11.73;6.60;;;;;;;24.47;12.96;102230.92;1716130;83;20902;-75
2022/03/23 10:41:40;;;;;;;9.25;6.05;;;;;;;24.52;12.11;102222.84;1689479;83;20945;-75
2022/03/23 10:44:20;;;;;;;45.05;33.42;;;;;;;24.41;12.64;102219.79;1714483;82;21600;-75
2022/03/23 10:46:49;;;;;;;8.90;6.35;;;;;;;24.34;12.89;102219.15;1708189;84;21055;-75
2022/03/23 10:49:16;;;;;;;6.90;5.20;;;;;;;24.23;12.76;102210.77;1708584;84;21536;-75
2022/03/23 10:51:44;;;;;;;12.25;6.90;;;;;;;24.29;12.92;102205.34;1708349;83;20916;-75
2022/03/23 10:54:20;;;;;;;11.73;6.45;;;;;;;24.54;13.09;102199.37;1708418;83;20940;-75
2022/03/23 10:56:48;;;;;;;9.50;5.50;;;;;;;24.83;13.45;102197.09;1708476;84;20917;-75
2022/03/23 10:59:23;;;;;;;13.72;5.85;;;;;;;24.98;12.70;102196.13;1708473;84;20913;-76
2022/03/23 11:02:02;;;;;;;10.50;5.83;;;;;;;24.78;12.24;102192.17;1708544;84;21158;-76
2022/03/23 11:04:47;;;;;;;13.25;7.12;;;;;;;24.66;12.51;102186.66;1708393;83;20917;-76
2022/03/23 11:07:30;;;;;;;13.85;6.87;;;;;;;24.63;12.32;102180.72;1708761;84;20940;-76
2022/03/23 11:15:49;;;;;;;10.20;5.78;;;;;;;24.63;12.82;102164.63;1708674;84;21865;-75
2022/03/23 11:18:18;;;;;;;8.33;6.20;;;;;;;24.57;12.23;102156.18;1708375;84;20897;-76
2022/03/23 11:20:56;;;;;;;6.92;6.05;;;;;;;24.42;12.65;102150.90;1708573;84;20877;-76
2022/03/23 11:23:30;;;;;;;7.55;5.80;;;;;;;24.37;12.48;102151.84;1708435;83;21487;-76
2022/03/23 11:26:00;;;;;;;12.75;6.45;;;;;;;24.28;12.56;102144.64;1708463;83;20941;-75
2022/03/23 11:28:31;;;;;;;6.67;5.80;;;;;;;24.16;12.96;102146.65;1708328;84;21998;-75
2022/03/23 11:30:58;;;;;;;11.50;6.97;;;;;;;24.02;12.77;102147.11;1708516;84;21558;-75
2022/03/23 11:33:26;;;;;;;7.92;5.37;;;;;;;23.81;12.87;102140.05;1680585;84;20897;-75
2022/03/23 11:35:53;;;;;;;8.60;5.60;;;;;;;23.73;13.64;102137.22;1708347;84;21462;-75
2022/03/23 11:38:28;;;;;;;12.28;6.53;;;;;;;23.56;13.00;102132.06;1708441;84;21356;-75
2022/03/23 11:40:56;;;;;;;7.40;5.80;;;;;;;23.24;12.92;102135.00;1708511;84;21528;-76
2022/03/23 11:43:25;;;;;;;7.65;6.03;;;;;;;22.92;12.98;102123.48;1708633;84;21503;-75
2022/03/23 11:45:54;;;;;;;8.25;5.03;;;;;;;22.68;13.02;102129.16;1708339;83;20960;-74